ENRA/MQN METAR and TAF weather

Enter ICAO airport designator
Station Type Date Time Source
ENRA METAR 2019/04/25 21:50 UTC NOAA

ENRA 252150Z VRB02KT CAVOK 05/M01 Q1022


Station Type Date Time Source
ENRA Decoded METAR 2019/04/25 21:50 UTC NOAA

Mo I Rana / Rossvoll, Norway (ENRA) 66-22N 014-18E 70M
Apr 25, 2019 - 05:50 PM EDT / 2019.04.25 2150 UTC
Wind: Variable at 2 MPH (2 KT):0
Visibility: greater than 7 mile(s):0
Temperature: 41 F (5 C)
Dew Point: 30 F (-1 C)
Relative Humidity: 65%
Pressure (altimeter): 30.18 in. Hg (1022 hPa)
ob: ENRA 252150Z VRB02KT CAVOK 05/M01 Q1022
cycle: 22

Station Type Date Time Source
ENRA TAF UTC NOAA

Error!

Example: see airport list